createdAt,value
2018-02-25T00:00:05.366Z,959.54
2018-02-25T00:15:06.075Z,959.7
2018-02-25T00:30:05.583Z,960.04
2018-02-25T00:45:05.035Z,959.83
2018-02-25T01:00:05.137Z,960.26
2018-02-25T01:15:06.297Z,960.79
2018-02-25T01:30:05.471Z,960.55
2018-02-25T01:45:05.028Z,960.76
2018-02-25T02:00:05.392Z,960.97
2018-02-25T02:15:05.028Z,960.89
2018-02-25T02:30:05.089Z,960.97
2018-02-25T02:45:05.651Z,961.21
2018-02-25T03:00:08.064Z,961.5
2018-02-25T03:15:06.290Z,961.98
2018-02-25T03:30:04.897Z,962.11
2018-02-25T03:45:04.440Z,961.85
2018-02-25T04:00:07.807Z,962.35
2018-02-25T04:15:12.581Z,963.12
2018-02-25T04:30:06.211Z,962.94
2018-02-25T04:45:08.273Z,963.52
2018-02-25T05:00:12.488Z,963.44
2018-02-25T05:15:07.515Z,963.84
2018-02-25T05:30:05.339Z,964.37
2018-02-25T05:45:05.316Z,964.16
2018-02-25T06:00:05.595Z,964.85
2018-02-25T06:15:04.539Z,964.93
2018-02-25T06:30:10.919Z,965.3
2018-02-25T06:45:04.928Z,965.62
2018-02-25T07:00:04.452Z,958.78
2018-02-25T07:15:04.960Z,958.92
2018-02-25T07:30:04.680Z,958.94
2018-02-25T07:45:04.609Z,958.7
2018-02-25T08:00:05.173Z,958.99
2018-02-25T08:15:05.123Z,958.89
2018-02-25T08:30:12.096Z,959.49
2018-02-25T08:45:08.285Z,959.2
2018-02-25T09:00:06.178Z,959.63
2018-02-25T09:15:06.141Z,966.55
2018-02-25T09:30:04.772Z,966.6
2018-02-25T09:45:06.218Z,966.34
2018-02-25T10:00:11.971Z,966.04
2018-02-25T10:15:05.532Z,966.23
2018-02-25T10:30:04.755Z,965.46
2018-02-25T10:45:05.817Z,965.51
2018-02-25T11:00:07.989Z,965.03
2018-02-25T11:15:05.229Z,964.45
2018-02-25T11:30:05.319Z,965.01
2018-02-25T11:45:04.980Z,964.58
2018-02-25T12:00:04.756Z,964
2018-02-25T12:15:05.121Z,963.89
2018-02-25T12:30:04.876Z,964.58
2018-02-25T12:45:05.341Z,964.26
2018-02-25T13:00:05.744Z,964.58
2018-02-25T13:15:04.915Z,964.66
2018-02-25T13:30:05.801Z,964.5
2018-02-25T13:45:15.852Z,964.56
2018-02-25T14:00:05.981Z,964.34
2018-02-25T14:15:07.568Z,964.5
2018-02-25T14:30:05.907Z,964.77
2018-02-25T14:45:07.965Z,964.72
2018-02-25T15:00:07.462Z,964.93
2018-02-25T15:15:05.890Z,965.14
2018-02-25T15:30:04.594Z,965.09
2018-02-25T15:45:05.678Z,965.14
2018-02-25T16:00:04.762Z,965.27
2018-02-25T16:15:16.126Z,965.54
2018-02-25T16:30:04.823Z,965.72
2018-02-25T16:45:07.751Z,965.64
2018-02-25T17:00:06.332Z,965.8
2018-02-25T17:15:05.280Z,965.83
2018-02-25T17:30:05.144Z,966.12
2018-02-25T17:45:12.476Z,966.55
2018-02-25T18:00:06.364Z,966.6
2018-02-25T18:15:04.788Z,966.65
2018-02-25T18:30:05.247Z,967.13
2018-02-25T18:45:04.984Z,967.45
2018-02-25T19:00:05.895Z,960.42
2018-02-25T19:15:15.406Z,960.18
2018-02-25T19:30:06.357Z,960.89
2018-02-25T19:45:05.173Z,960.76
2018-02-25T20:00:05.401Z,960.78
2018-02-25T20:15:04.938Z,960.84
2018-02-25T20:30:08.283Z,960.68
2018-02-25T20:45:08.845Z,960.78
2018-02-25T21:00:06.173Z,960.52
2018-02-25T21:15:05.577Z,960.6
2018-02-25T21:30:08.755Z,960.47
2018-02-25T21:45:07.970Z,960.6
2018-02-25T22:00:07.769Z,960.44
2018-02-25T22:15:08.310Z,960.68
2018-02-25T22:30:05.479Z,960.78
2018-02-25T22:45:05.862Z,960.84
2018-02-25T23:00:06.569Z,960.78
2018-02-25T23:15:04.794Z,960.47
2018-02-25T23:30:12.003Z,960.6
2018-02-25T23:45:05.538Z,960.94
